Channing, Michigan
Current Conditions -  °F | °C
As of 10:54 AM on Sunday 23 Nov 2014 (Local Time) from KIMT Reporting Station
Moderate Fog Moderate Fog  
Wind Chill:   Ceiling: 100
Heat Index:   Visibility: 0mi
Dew Point:   Wind: 7mph
Humidity: 97%   Direction: 160°SSE
Pressure: 29.53"   Gusts: NA
Location:  46.14°N, 88.09°W
Report Text: KIMT 231654Z AUTO 16006KT M1/4SM FG VV001 06/06 A2953 RMK AO2 SLP011 T00610056
Loading
Personal Weather Stations






























Interactive Weather Map New forecast layout! Learn more

10-Day Weather Forecast

Advertisements
Track Severe Weather on mobile